sensor_id;sensor_type;location;lat;lon;timestamp;pressure;altitude;pressure_sealevel;temperature;humidity
21273;BME280;36726;52.328;10.552;2023-02-13T00:00:22;102788.97;;;9.41;100.00
21273;BME280;36726;52.328;10.552;2023-02-13T00:02:49;102797.09;;;9.44;100.00
21273;BME280;36726;52.328;10.552;2023-02-13T00:05:16;102795.34;;;9.44;100.00
21273;BME280;36726;52.328;10.552;2023-02-13T00:07:42;102791.97;;;9.47;100.00
21273;BME280;36726;52.328;10.552;2023-02-13T00:10:09;102794.66;;;9.49;100.00
21273;BME280;36726;52.328;10.552;2023-02-13T00:12:36;102787.66;;;9.49;100.00
21273;BME280;36726;52.328;10.552;2023-02-13T00:15:03;102793.84;;;9.50;100.00
21273;BME280;36726;52.328;10.552;2023-02-13T00:17:30;102798.31;;;9.51;100.00
21273;BME280;36726;52.328;10.552;2023-02-13T00:19:57;102793.03;;;9.51;100.00
21273;BME280;36726;52.328;10.552;2023-02-13T00:22:24;102795.66;;;9.51;100.00
21273;BME280;36726;52.328;10.552;2023-02-13T00:24:52;102786.81;;;9.50;100.00
21273;BME280;36726;52.328;10.552;2023-02-13T00:27:19;102798.47;;;9.54;100.00
21273;BME280;36726;52.328;10.552;2023-02-13T00:29:45;102782.59;;;9.54;100.00
21273;BME280;36726;52.328;10.552;2023-02-13T00:32:13;102783.44;;;9.53;100.00
21273;BME280;36726;52.328;10.552;2023-02-13T00:34:40;102796.66;;;9.53;100.00
21273;BME280;36726;52.328;10.552;2023-02-13T00:37:09;102785.16;;;9.52;100.00
21273;BME280;36726;52.328;10.552;2023-02-13T00:39:36;102784.25;;;9.52;100.00
21273;BME280;36726;52.328;10.552;2023-02-13T00:42:03;102784.25;;;9.52;100.00
21273;BME280;36726;52.328;10.552;2023-02-13T00:44:30;102791.38;;;9.53;100.00
21273;BME280;36726;52.328;10.552;2023-02-13T00:46:57;102786.09;;;9.53;100.00
21273;BME280;36726;52.328;10.552;2023-02-13T00:49:24;102789.72;;;9.55;100.00
21273;BME280;36726;52.328;10.552;2023-02-13T00:51:50;102792.28;;;9.53;100.00
21273;BME280;36726;52.328;10.552;2023-02-13T00:54:18;102789.53;;;9.52;100.00
21273;BME280;36726;52.328;10.552;2023-02-13T00:56:45;102788.66;;;9.51;100.00
21273;BME280;36726;52.328;10.552;2023-02-13T00:59:13;102782.47;;;9.51;100.00
21273;BME280;36726;52.328;10.552;2023-02-13T01:01:40;102784.25;;;9.52;100.00
21273;BME280;36726;52.328;10.552;2023-02-13T01:04:07;102781.63;;;9.52;100.00
21273;BME280;36726;52.328;10.552;2023-02-13T01:06:33;102773.69;;;9.52;100.00
21273;BME280;36726;52.328;10.552;2023-02-13T01:09:02;102775.34;;;9.50;100.00
21273;BME280;36726;52.328;10.552;2023-02-13T01:11:29;102774.38;;;9.48;100.00
21273;BME280;36726;52.328;10.552;2023-02-13T01:13:59;102773.47;;;9.47;100.00
21273;BME280;36726;52.328;10.552;2023-02-13T01:16:26;102773.38;;;9.46;100.00
21273;BME280;36726;52.328;10.552;2023-02-13T01:18:54;102771.75;;;9.48;100.00
21273;BME280;36726;52.328;10.552;2023-02-13T01:21:22;102764.63;;;9.47;100.00
21273;BME280;36726;52.328;10.552;2023-02-13T01:23:52;102766.34;;;9.46;100.00
21273;BME280;36726;52.328;10.552;2023-02-13T01:26:22;102761.84;;;9.43;100.00
21273;BME280;36726;52.328;10.552;2023-02-13T01:28:55;102762.63;;;9.42;100.00
21273;BME280;36726;52.328;10.552;2023-02-13T01:31:24;102764.28;;;9.40;100.00
21273;BME280;36726;52.328;10.552;2023-02-13T01:33:51;102752.84;;;9.40;100.00
21273;BME280;36726;52.328;10.552;2023-02-13T01:36:20;102752.84;;;9.40;100.00
21273;BME280;36726;52.328;10.552;2023-02-13T01:38:47;102756.22;;;9.37;100.00
21273;BME280;36726;52.328;10.552;2023-02-13T01:41:14;102753.56;;;9.37;100.00
21273;BME280;36726;52.328;10.552;2023-02-13T01:43:46;102749.94;;;9.35;100.00
21273;BME280;36726;52.328;10.552;2023-02-13T01:46:16;102745.56;;;9.36;100.00
21273;BME280;36726;52.328;10.552;2023-02-13T01:48:45;102743.66;;;9.33;100.00
21273;BME280;36726;52.328;10.552;2023-02-13T01:51:20;102745.44;;;9.33;100.00
21273;BME280;36726;52.328;10.552;2023-02-13T01:53:53;102745.50;;;9.34;100.00
21273;BME280;36726;52.328;10.552;2023-02-13T01:56:32;102745.56;;;9.36;100.00
21273;BME280;36726;52.328;10.552;2023-02-13T01:59:06;102741.13;;;9.35;100.00
21273;BME280;36726;52.328;10.552;2023-02-13T02:01:34;102741.94;;;9.34;100.00
21273;BME280;36726;52.328;10.552;2023-02-13T02:04:09;102742.78;;;9.33;100.00
21273;BME280;36726;52.328;10.552;2023-02-13T02:06:40;102747.09;;;9.31;100.00
21273;BME280;36726;52.328;10.552;2023-02-13T02:09:15;102742.59;;;9.30;100.00
21273;BME280;36726;52.328;10.552;2023-02-13T02:12:00;102739.16;;;9.31;100.00
21273;BME280;36726;52.328;10.552;2023-02-13T02:14:29;102734.69;;;9.30;100.00
21273;BME280;36726;52.328;10.552;2023-02-13T02:16:56;102739.16;;;9.31;100.00
21273;BME280;36726;52.328;10.552;2023-02-13T02:19:41;102739.09;;;9.29;100.00
21273;BME280;36726;52.328;10.552;2023-02-13T02:22:16;102740.72;;;9.27;100.00
21273;BME280;36726;52.328;10.552;2023-02-13T02:28:03;102737.09;;;9.25;100.00
21273;BME280;36726;52.328;10.552;2023-02-13T02:31:09;102742.47;;;9.27;100.00
21273;BME280;36726;52.328;10.552;2023-02-13T02:34:08;102739.81;;;9.27;100.00
21273;BME280;36726;52.328;10.552;2023-02-13T02:45:16;102733.31;;;9.20;100.00
21273;BME280;36726;52.328;10.552;2023-02-13T02:48:15;102737.59;;;9.18;100.00
21273;BME280;36726;52.328;10.552;2023-02-13T02:52:13;102728.69;;;9.16;100.00
21273;BME280;36726;52.328;10.552;2023-02-13T02:54:21;102718.94;;;9.15;100.00
21273;BME280;36726;52.328;10.552;2023-02-13T02:57:13;102723.34;;;9.15;100.00
21273;BME280;36726;52.328;10.552;2023-02-13T02:59:43;102723.34;;;9.15;100.00
21273;BME280;36726;52.328;10.552;2023-02-13T03:02:31;102715.50;;;9.16;100.00
21273;BME280;36726;52.328;10.552;2023-02-13T03:05:43;102716.41;;;9.17;100.00
21273;BME280;36726;52.328;10.552;2023-02-13T03:08:30;102723.41;;;9.16;100.00
21273;BME280;36726;52.328;10.552;2023-02-13T03:11:15;102718.94;;;9.15;100.00
21273;BME280;36726;52.328;10.552;2023-02-13T03:14:19;102705.66;;;9.14;100.00
21273;BME280;36726;52.328;10.552;2023-02-13T03:16:47;102717.06;;;9.13;100.00
21273;BME280;36726;52.328;10.552;2023-02-13T03:19:59;102719.63;;;9.11;100.00
21273;BME280;36726;52.328;10.552;2023-02-13T03:23:13;102723.91;;;9.09;100.00
21273;BME280;36726;52.328;10.552;2023-02-13T03:26:06;102721.22;;;9.08;100.00
21273;BME280;36726;52.328;10.552;2023-02-13T03:31:36;102712.38;;;9.07;100.00
21273;BME280;36726;52.328;10.552;2023-02-13T03:34:08;102722.09;;;9.08;100.00
21273;BME280;36726;52.328;10.552;2023-02-13T03:42:33;102715.75;;;9.05;100.00
21273;BME280;36726;52.328;10.552;2023-02-13T03:45:13;102714.84;;;9.04;100.00
21273;BME280;36726;52.328;10.552;2023-02-13T03:48:03;102716.66;;;9.05;100.00
21273;BME280;36726;52.328;10.552;2023-02-13T03:50:37;102715.81;;;9.06;100.00
21273;BME280;36726;52.328;10.552;2023-02-13T03:53:12;102707.91;;;9.06;100.00
21273;BME280;36726;52.328;10.552;2023-02-13T03:55:44;102720.28;;;9.07;100.00
21273;BME280;36726;52.328;10.552;2023-02-13T03:58:34;102725.56;;;9.07;100.00
21273;BME280;36726;52.328;10.552;2023-02-13T04:01:23;102729.94;;;9.07;100.00
21273;BME280;36726;52.328;10.552;2023-02-13T04:03:58;102725.56;;;9.07;100.00
21273;BME280;36726;52.328;10.552;2023-02-13T04:06:31;102720.28;;;9.07;100.00
21273;BME280;36726;52.328;10.552;2023-02-13T04:08:58;102733.50;;;9.07;100.00
21273;BME280;36726;52.328;10.552;2023-02-13T04:11:52;102732.66;;;9.08;100.00
21273;BME280;36726;52.328;10.552;2023-02-13T04:14:48;102730.84;;;9.07;100.00
21273;BME280;36726;52.328;10.552;2023-02-13T04:17:21;102719.38;;;9.07;100.00
21273;BME280;36726;52.328;10.552;2023-02-13T04:19:50;102721.94;;;9.05;100.00
21273;BME280;36726;52.328;10.552;2023-02-13T04:22:18;102724.50;;;9.04;100.00
21273;BME280;36726;52.328;10.552;2023-02-13T04:24:46;102709.41;;;9.01;100.00
21273;BME280;36726;52.328;10.552;2023-02-13T04:27:14;102714.69;;;9.01;100.00
21273;BME280;36726;52.328;10.552;2023-02-13T04:29:42;102724.44;;;9.02;100.00
21273;BME280;36726;52.328;10.552;2023-02-13T04:32:11;102721.78;;;9.02;100.00
21273;BME280;36726;52.328;10.552;2023-02-13T04:34:38;102718.22;;;9.02;100.00
21273;BME280;36726;52.328;10.552;2023-02-13T04:37:05;102719.97;;;9.01;100.00
21273;BME280;36726;52.328;10.552;2023-02-13T04:39:31;102713.75;;;9.01;100.00
21273;BME280;36726;52.328;10.552;2023-02-13T04:41:58;102721.59;;;8.99;100.00
21273;BME280;36726;52.328;10.552;2023-02-13T04:44:25;102714.59;;;9.00;100.00
21273;BME280;36726;52.328;10.552;2023-02-13T04:46:51;102713.69;;;8.99;100.00
21273;BME280;36726;52.328;10.552;2023-02-13T04:49:18;102703.97;;;8.98;100.00
21273;BME280;36726;52.328;10.552;2023-02-13T04:51:44;102703.88;;;8.97;100.00
21273;BME280;36726;52.328;10.552;2023-02-13T04:54:11;102705.63;;;8.96;100.00
21273;BME280;36726;52.328;10.552;2023-02-13T04:56:37;102699.41;;;8.96;100.00
21273;BME280;36726;52.328;10.552;2023-02-13T04:59:04;102692.41;;;8.96;100.00
21273;BME280;36726;52.328;10.552;2023-02-13T05:01:31;102689.84;;;8.98;100.00
21273;BME280;36726;52.328;10.552;2023-02-13T05:03:59;102699.69;;;9.00;100.00
21273;BME280;36726;52.328;10.552;2023-02-13T05:06:25;102699.69;;;9.00;100.00
21273;BME280;36726;52.328;10.552;2023-02-13T05:08:52;102694.41;;;9.00;100.00
21273;BME280;36726;52.328;10.552;2023-02-13T05:11:19;102701.47;;;9.01;100.00
21273;BME280;36726;52.328;10.552;2023-02-13T05:13:45;102693.56;;;9.01;100.00
21273;BME280;36726;52.328;10.552;2023-02-13T05:16:12;102698.84;;;9.01;100.00
21273;BME280;36726;52.328;10.552;2023-02-13T05:18:38;102707.59;;;9.00;100.00
21273;BME280;36726;52.328;10.552;2023-02-13T05:21:05;102707.41;;;8.97;100.00
21273;BME280;36726;52.328;10.552;2023-02-13T05:23:50;102710.06;;;8.97;100.00
21273;BME280;36726;52.328;10.552;2023-02-13T05:26:17;102716.16;;;8.96;100.00
21273;BME280;36726;52.328;10.552;2023-02-13T05:28:43;102709.81;;;8.93;100.00
21273;BME280;36726;52.328;10.552;2023-02-13T05:31:31;102718.41;;;8.89;100.00
21273;BME280;36726;52.328;10.552;2023-02-13T05:33:58;102717.41;;;8.87;100.00
21273;BME280;36726;52.328;10.552;2023-02-13T05:36:25;102717.47;;;8.88;100.00
21273;BME280;36726;52.328;10.552;2023-02-13T05:38:51;102719.22;;;8.88;100.00
21273;BME280;36726;52.328;10.552;2023-02-13T05:41:18;102710.41;;;8.87;100.00
21273;BME280;36726;52.328;10.552;2023-02-13T05:43:45;102715.69;;;8.87;100.00
21273;BME280;36726;52.328;10.552;2023-02-13T05:46:11;102715.69;;;8.87;100.00
21273;BME280;36726;52.328;10.552;2023-02-13T05:48:38;102710.41;;;8.87;100.00
21273;BME280;36726;52.328;10.552;2023-02-13T05:51:04;102711.31;;;8.88;100.00
21273;BME280;36726;52.328;10.552;2023-02-13T05:53:33;102715.69;;;8.87;100.00
21273;BME280;36726;52.328;10.552;2023-02-13T05:56:01;102721.78;;;8.86;100.00
21273;BME280;36726;52.328;10.552;2023-02-13T05:58:28;102714.84;;;8.88;100.00
21273;BME280;36726;52.328;10.552;2023-02-13T06:00:56;102713.88;;;8.86;100.00
21273;BME280;36726;52.328;10.552;2023-02-13T06:03:25;102719.16;;;8.86;100.00
21273;BME280;36726;52.328;10.552;2023-02-13T06:05:53;102712.03;;;8.85;100.00
21273;BME280;36726;52.328;10.552;2023-02-13T06:08:20;102721.78;;;8.86;100.00
21273;BME280;36726;52.328;10.552;2023-02-13T06:10:48;102713.69;;;8.83;100.00
21273;BME280;36726;52.328;10.552;2023-02-13T06:13:15;102721.59;;;8.83;100.00
21273;BME280;36726;52.328;10.552;2023-02-13T06:15:42;102718.06;;;8.83;100.00
21273;BME280;36726;52.328;10.552;2023-02-13T06:18:09;102712.69;;;8.81;100.00
21273;BME280;36726;52.328;10.552;2023-02-13T06:20:35;102722.25;;;8.79;100.00
21273;BME280;36726;52.328;10.552;2023-02-13T06:23:02;102724.50;;;8.72;100.00
21273;BME280;36726;52.328;10.552;2023-02-13T06:25:29;102725.97;;;8.67;100.00
21273;BME280;36726;52.328;10.552;2023-02-13T06:27:56;102732.16;;;8.67;100.00
21273;BME280;36726;52.328;10.552;2023-02-13T06:30:22;102738.44;;;8.69;100.00
21273;BME280;36726;52.328;10.552;2023-02-13T06:32:49;102742.00;;;8.70;100.00
21273;BME280;36726;52.328;10.552;2023-02-13T06:35:15;102746.50;;;8.72;100.00
21273;BME280;36726;52.328;10.552;2023-02-13T06:37:42;102739.59;;;8.74;100.00
21273;BME280;36726;52.328;10.552;2023-02-13T06:40:10;102755.59;;;8.77;100.00
21273;BME280;36726;52.328;10.552;2023-02-13T06:42:37;102747.78;;;8.79;100.00
21273;BME280;36726;52.328;10.552;2023-02-13T06:45:04;102751.41;;;8.81;100.00
21273;BME280;36726;52.328;10.552;2023-02-13T06:47:30;102752.34;;;8.83;100.00
21273;BME280;36726;52.328;10.552;2023-02-13T06:49:57;102757.75;;;8.84;100.00
21273;BME280;36726;52.328;10.552;2023-02-13T06:52:24;102753.34;;;8.85;100.00
21273;BME280;36726;52.328;10.552;2023-02-13T06:54:50;102760.47;;;8.86;100.00
21273;BME280;36726;52.328;10.552;2023-02-13T06:57:17;102758.06;;;8.90;100.00
21273;BME280;36726;52.328;10.552;2023-02-13T06:59:43;102750.34;;;8.93;100.00
21273;BME280;36726;52.328;10.552;2023-02-13T07:02:11;102751.31;;;8.95;100.00
21273;BME280;36726;52.328;10.552;2023-02-13T07:04:38;102765.47;;;8.97;100.00
21273;BME280;36726;52.328;10.552;2023-02-13T07:07:05;102759.41;;;8.98;100.00
21273;BME280;36726;52.328;10.552;2023-02-13T07:09:32;102759.41;;;8.98;100.00
21273;BME280;36726;52.328;10.552;2023-02-13T07:12:03;102756.75;;;8.98;100.00
21273;BME280;36726;52.328;10.552;2023-02-13T07:14:30;102762.03;;;8.98;100.00
21273;BME280;36726;52.328;10.552;2023-02-13T07:16:57;102763.03;;;9.00;100.00
21273;BME280;36726;52.328;10.552;2023-02-13T07:19:24;102761.19;;;8.99;100.00
21273;BME280;36726;52.328;10.552;2023-02-13T07:21:50;102767.41;;;9.00;100.00
21273;BME280;36726;52.328;10.552;2023-02-13T07:24:17;102767.47;;;9.01;100.00
21273;BME280;36726;52.328;10.552;2023-02-13T07:26:44;102754.34;;;9.03;100.00
21273;BME280;36726;52.328;10.552;2023-02-13T07:29:10;102758.91;;;9.05;100.00
21273;BME280;36726;52.328;10.552;2023-02-13T07:31:38;102759.06;;;9.08;100.00
21273;BME280;36726;52.328;10.552;2023-02-13T07:34:05;102762.75;;;9.12;100.00
21273;BME280;36726;52.328;10.552;2023-02-13T07:36:33;102759.38;;;9.14;100.00
21273;BME280;36726;52.328;10.552;2023-02-13T07:38:59;102767.31;;;9.14;100.00
21273;BME280;36726;52.328;10.552;2023-02-13T07:41:26;102765.75;;;9.18;100.00
21273;BME280;36726;52.328;10.552;2023-02-13T07:43:53;102777.38;;;9.21;100.00
21273;BME280;36726;52.328;10.552;2023-02-13T07:46:20;102772.16;;;9.23;100.00
21273;BME280;36726;52.328;10.552;2023-02-13T07:48:46;102776.72;;;9.25;100.00
21273;BME280;36726;52.328;10.552;2023-02-13T07:51:13;102783.78;;;9.26;100.00
21273;BME280;36726;52.328;10.552;2023-02-13T07:53:41;102775.94;;;9.28;100.00
21273;BME280;36726;52.328;10.552;2023-02-13T07:56:08;102783.06;;;9.29;100.00
21273;BME280;36726;52.328;10.552;2023-02-13T07:58:36;102786.50;;;9.28;99.08
21273;BME280;36726;52.328;10.552;2023-02-13T08:01:07;102784.63;;;9.25;99.03
21273;BME280;36726;52.328;10.552;2023-02-13T08:03:33;102785.44;;;9.24;98.74
21273;BME280;36726;52.328;10.552;2023-02-13T08:06:01;102788.09;;;9.24;99.35
21273;BME280;36726;52.328;10.552;2023-02-13T08:08:28;102791.63;;;9.25;98.88
21273;BME280;36726;52.328;10.552;2023-02-13T08:10:54;102786.28;;;9.23;98.94
21273;BME280;36726;52.328;10.552;2023-02-13T08:13:41;102787.13;;;9.22;99.09
21273;BME280;36726;52.328;10.552;2023-02-13T08:16:08;102795.03;;;9.22;98.52
21273;BME280;36726;52.328;10.552;2023-02-13T08:18:35;102791.72;;;9.26;99.27
21273;BME280;36726;52.328;10.552;2023-02-13T08:21:02;102799.91;;;9.31;99.77
21273;BME280;36726;52.328;10.552;2023-02-13T08:23:29;102803.63;;;9.34;99.20
21273;BME280;36726;52.328;10.552;2023-02-13T08:25:59;102800.41;;;9.40;99.60
21273;BME280;36726;52.328;10.552;2023-02-13T08:28:30;102802.44;;;9.46;99.20
21273;BME280;36726;52.328;10.552;2023-02-13T08:30:56;102793.75;;;9.48;99.52
21273;BME280;36726;52.328;10.552;2023-02-13T08:33:24;102790.59;;;9.55;98.33
21273;BME280;36726;52.328;10.552;2023-02-13T08:35:50;102791.78;;;9.60;99.26
21273;BME280;36726;52.328;10.552;2023-02-13T08:38:17;102794.50;;;9.62;98.59
21273;BME280;36726;52.328;10.552;2023-02-13T08:40:46;102789.28;;;9.63;98.68
21273;BME280;36726;52.328;10.552;2023-02-13T08:43:13;102797.13;;;9.62;98.49
21273;BME280;36726;52.328;10.552;2023-02-13T08:45:40;102793.56;;;9.61;97.58
21273;BME280;36726;52.328;10.552;2023-02-13T08:48:07;102795.41;;;9.62;98.23
21273;BME280;36726;52.328;10.552;2023-02-13T08:50:34;102790.19;;;9.64;98.39
21273;BME280;36726;52.328;10.552;2023-02-13T08:53:03;102789.59;;;9.69;98.35
21273;BME280;36726;52.328;10.552;2023-02-13T08:55:30;102788.03;;;9.73;98.18
21273;BME280;36726;52.328;10.552;2023-02-13T08:58:00;102791.66;;;9.75;97.87
21273;BME280;36726;52.328;10.552;2023-02-13T09:00:28;102796.09;;;9.76;97.08
21273;BME280;36726;52.328;10.552;2023-02-13T09:02:59;102798.75;;;9.76;97.28
21273;BME280;36726;52.328;10.552;2023-02-13T09:05:26;102801.47;;;9.77;96.59
21273;BME280;36726;52.328;10.552;2023-02-13T09:07:52;102792.63;;;9.77;96.85
21273;BME280;36726;52.328;10.552;2023-02-13T09:10:19;102795.25;;;9.77;96.47
21273;BME280;36726;52.328;10.552;2023-02-13T09:12:53;102797.03;;;9.76;96.69
21273;BME280;36726;52.328;10.552;2023-02-13T09:15:19;102806.69;;;9.76;95.92
21273;BME280;36726;52.328;10.552;2023-02-13T09:17:46;102802.38;;;9.78;96.25
21273;BME280;36726;52.328;10.552;2023-02-13T09:20:13;102803.38;;;9.80;96.31
21273;BME280;36726;52.328;10.552;2023-02-13T09:22:40;102798.09;;;9.80;96.02
21273;BME280;36726;52.328;10.552;2023-02-13T09:25:08;102802.72;;;9.84;96.57
21273;BME280;36726;52.328;10.552;2023-02-13T09:27:34;102798.22;;;9.83;95.42
21273;BME280;36726;52.328;10.552;2023-02-13T09:30:02;102792.41;;;9.90;96.11
21273;BME280;36726;52.328;10.552;2023-02-13T09:32:28;102796.38;;;9.98;96.60
21273;BME280;36726;52.328;10.552;2023-02-13T09:34:55;102797.38;;;10.00;96.12
21273;BME280;36726;52.328;10.552;2023-02-13T09:37:22;102800.81;;;9.99;95.68
21273;BME280;36726;52.328;10.552;2023-02-13T09:39:49;102803.47;;;9.99;95.58
21273;BME280;36726;52.328;10.552;2023-02-13T09:42:22;102794.41;;;9.94;94.73
21273;BME280;36726;52.328;10.552;2023-02-13T09:44:57;102790.16;;;9.97;94.69
21273;BME280;36726;52.328;10.552;2023-02-13T09:47:38;102794.00;;;10.04;94.83
21273;BME280;36726;52.328;10.552;2023-02-13T09:50:20;102792.34;;;10.06;94.39
21273;BME280;36726;52.328;10.552;2023-02-13T09:52:49;102796.84;;;10.07;93.80
21273;BME280;36726;52.328;10.552;2023-02-13T09:55:21;102790.91;;;10.11;94.14
21273;BME280;36726;52.328;10.552;2023-02-13T09:58:00;102799.00;;;10.14;93.66
21273;BME280;36726;52.328;10.552;2023-02-13T10:00:37;102802.75;;;10.19;94.13
21273;BME280;36726;52.328;10.552;2023-02-13T10:03:26;102794.22;;;10.24;93.65
21273;BME280;36726;52.328;10.552;2023-02-13T10:12:36;102808.13;;;10.20;93.20
21273;BME280;36726;52.328;10.552;2023-02-13T10:14:36;102809.03;;;10.21;93.12
21273;BME280;36726;52.328;10.552;2023-02-13T10:17:16;102809.78;;;10.18;92.38
21273;BME280;36726;52.328;10.552;2023-02-13T10:20:00;102816.84;;;10.18;93.57
21273;BME280;36726;52.328;10.552;2023-02-13T10:22:34;102810.75;;;10.20;93.23
21273;BME280;36726;52.328;10.552;2023-02-13T10:25:05;102821.41;;;10.22;92.47
21273;BME280;36726;52.328;10.552;2023-02-13T10:27:38;102817.91;;;10.21;92.81
21273;BME280;36726;52.328;10.552;2023-02-13T10:30:08;102813.34;;;10.19;92.59
21273;BME280;36726;52.328;10.552;2023-02-13T10:32:58;102811.69;;;10.21;92.03
21273;BME280;36726;52.328;10.552;2023-02-13T10:38:59;102798.91;;;10.30;91.47
21273;BME280;36726;52.328;10.552;2023-02-13T10:41:40;102802.63;;;10.33;90.75
21273;BME280;36726;52.328;10.552;2023-02-13T10:49:51;102804.78;;;10.42;90.71
21273;BME280;36726;52.328;10.552;2023-02-13T10:58:16;102795.59;;;10.34;89.05
21273;BME280;36726;52.328;10.552;2023-02-13T11:03:32;102798.59;;;10.24;89.01
21273;BME280;36726;52.328;10.552;2023-02-13T11:06:04;102804.50;;;10.18;87.81
21273;BME280;36726;52.328;10.552;2023-02-13T11:08:33;102800.84;;;10.16;88.31
21273;BME280;36726;52.328;10.552;2023-02-13T11:11:02;102795.56;;;10.16;89.31
21273;BME280;36726;52.328;10.552;2023-02-13T11:13:29;102793.03;;;10.18;89.50
21273;BME280;36726;52.328;10.552;2023-02-13T11:16:04;102787.75;;;10.18;89.19
21273;BME280;36726;52.328;10.552;2023-02-13T11:18:48;102795.97;;;10.24;88.69
21273;BME280;36726;52.328;10.552;2023-02-13T11:21:20;102792.78;;;10.31;89.63
21273;BME280;36726;52.328;10.552;2023-02-13T11:23:52;102802.06;;;10.40;89.00
21273;BME280;36726;52.328;10.552;2023-02-13T11:26:23;102795.19;;;10.44;89.07
21273;BME280;36726;52.328;10.552;2023-02-13T11:28:55;102797.22;;;10.50;87.99
21273;BME280;36726;52.328;10.552;2023-02-13T11:31:29;102791.03;;;10.49;87.01
21273;BME280;36726;52.328;10.552;2023-02-13T11:33:57;102787.56;;;10.50;86.09
21273;BME280;36726;52.328;10.552;2023-02-13T11:39:00;102782.94;;;10.46;86.85
21273;BME280;36726;52.328;10.552;2023-02-13T11:41:28;102787.56;;;10.50;86.32
21273;BME280;36726;52.328;10.552;2023-02-13T11:43:57;102785.91;;;10.52;86.43
21273;BME280;36726;52.328;10.552;2023-02-13T11:46:42;102779.38;;;10.63;87.01
21273;BME280;36726;52.328;10.552;2023-02-13T11:49:18;102782.38;;;10.71;87.06
21273;BME280;36726;52.328;10.552;2023-02-13T11:51:48;102782.59;;;10.75;86.28
21273;BME280;36726;52.328;10.552;2023-02-13T11:54:22;102778.50;;;10.82;86.66
21273;BME280;36726;52.328;10.552;2023-02-13T11:59:47;102774.97;;;10.81;84.94
21273;BME280;36726;52.328;10.552;2023-02-13T12:04:49;102780.13;;;10.97;83.68
21273;BME280;36726;52.328;10.552;2023-02-13T12:07:25;102778.28;;;10.96;83.04
21273;BME280;36726;52.328;10.552;2023-02-13T12:09:58;102764.25;;;10.97;83.19
21273;BME280;36726;52.328;10.552;2023-02-13T12:12:54;102768.81;;;11.01;83.28
21273;BME280;36726;52.328;10.552;2023-02-13T12:15:24;102770.22;;;11.12;83.56
21273;BME280;36726;52.328;10.552;2023-02-13T12:18:19;102763.41;;;11.17;83.32
21273;BME280;36726;52.328;10.552;2023-02-13T12:21:04;102758.53;;;11.26;82.99
21273;BME280;36726;52.328;10.552;2023-02-13T12:23:42;102758.06;;;11.36;83.14
21273;BME280;36726;52.328;10.552;2023-02-13T12:40:19;102752.25;;;11.45;80.44
21273;BME280;36726;52.328;10.552;2023-02-13T12:46:09;102736.13;;;11.60;80.74
21273;BME280;36726;52.328;10.552;2023-02-13T12:49:07;102738.06;;;11.64;80.22
21273;BME280;36726;52.328;10.552;2023-02-13T12:54:21;102737.16;;;11.63;79.86
21273;BME280;36726;52.328;10.552;2023-02-13T12:57:21;102730.22;;;11.65;79.01
21273;BME280;36726;52.328;10.552;2023-02-13T13:03:00;102725.63;;;11.82;79.55
21273;BME280;36726;52.328;10.552;2023-02-13T13:05:39;102723.41;;;11.92;79.84
21273;BME280;36726;52.328;10.552;2023-02-13T13:08:41;102718.00;;;12.11;80.08
21273;BME280;36726;52.328;10.552;2023-02-13T13:13:56;102724.97;;;12.30;77.25
21273;BME280;36726;52.328;10.552;2023-02-13T13:22:21;102721.84;;;12.18;73.24
21273;BME280;36726;52.328;10.552;2023-02-13T13:27:32;102717.19;;;11.92;74.94
21273;BME280;36726;52.328;10.552;2023-02-13T13:30:05;102716.59;;;11.77;75.11
21273;BME280;36726;52.328;10.552;2023-02-13T13:32:41;102708.78;;;11.61;74.92
21273;BME280;36726;52.328;10.552;2023-02-13T13:35:15;102712.97;;;11.56;76.26
21273;BME280;36726;52.328;10.552;2023-02-13T13:38:04;102699.94;;;11.60;76.83
21273;BME280;36726;52.328;10.552;2023-02-13T13:40:49;102704.44;;;11.63;76.37
21273;BME280;36726;52.328;10.552;2023-02-13T13:46:01;102713.94;;;11.58;76.37
21273;BME280;36726;52.328;10.552;2023-02-13T13:48:45;102701.38;;;11.53;76.53
21273;BME280;36726;52.328;10.552;2023-02-13T13:51:17;102706.78;;;11.55;77.53
21273;BME280;36726;52.328;10.552;2023-02-13T14:07:53;102682.84;;;11.53;77.18
21273;BME280;36726;52.328;10.552;2023-02-13T14:20:48;102675.03;;;11.36;77.84
21273;BME280;36726;52.328;10.552;2023-02-13T14:26:21;102682.97;;;11.36;78.04
21273;BME280;36726;52.328;10.552;2023-02-13T14:31:22;102688.78;;;11.27;77.15
21273;BME280;36726;52.328;10.552;2023-02-13T14:34:18;102684.97;;;11.21;76.69
21273;BME280;36726;52.328;10.552;2023-02-13T14:39:38;102675.84;;;11.14;76.79
21273;BME280;36726;52.328;10.552;2023-02-13T14:42:41;102678.34;;;11.11;77.40
21273;BME280;36726;52.328;10.552;2023-02-13T14:45:21;102683.78;;;11.14;76.71
21273;BME280;36726;52.328;10.552;2023-02-13T14:47:52;102681.41;;;11.20;76.53
21273;BME280;36726;52.328;10.552;2023-02-13T14:50:22;102685.03;;;11.22;77.14
21273;BME280;36726;52.328;10.552;2023-02-13T14:52:52;102681.41;;;11.20;77.15
21273;BME280;36726;52.328;10.552;2023-02-13T14:58:21;102683.59;;;11.30;76.94
21273;BME280;36726;52.328;10.552;2023-02-13T15:06:12;102682.38;;;11.22;75.13
21273;BME280;36726;52.328;10.552;2023-02-13T15:08:47;102678.75;;;11.20;74.91
21273;BME280;36726;52.328;10.552;2023-02-13T15:11:32;102681.28;;;11.17;73.98
21273;BME280;36726;52.328;10.552;2023-02-13T15:14:20;102667.81;;;11.13;73.54
21273;BME280;36726;52.328;10.552;2023-02-13T15:17:00;102665.06;;;11.10;73.03